Time;durP1;ratioP1;P1;durP2;ratioP2;P2;SDS_P1;SDS_P2;PMS_P1;PMS_P2;Temp;Humidity;BMP_temperature;BMP_pressure;BME280_temperature;BME280_humidity;BME280_pressure;Samples;Min_cycle;Max_cycle;Signal;HPM_P1;HPM_P2
2022/03/24 00:01:58;;;;;;;11.27;10.17;;;;;;;;;;5054118;28;20259;-53
2022/03/24 00:04:24;;;;;;;15.43;11.03;;;;;;;;;;5043386;28;20191;-55
2022/03/24 00:06:50;;;;;;;11.07;9.13;;;;;;;;;;5052439;28;20271;-53
2022/03/24 00:09:16;;;;;;;11.97;10.77;;;;;;;;;;5065009;28;20184;-53
2022/03/24 00:11:42;;;;;;;10.43;9.33;;;;;;;;;;5064753;28;20766;-55
2022/03/24 00:14:09;;;;;;;11.53;9.37;;;;;;;;;;5054237;28;20468;-54
2022/03/24 00:16:35;;;;;;;12.57;10.57;;;;;;;;;;5063669;28;20189;-53
2022/03/24 00:19:01;;;;;;;12.57;10.30;;;;;;;;;;5070061;28;20184;-54
2022/03/24 00:21:27;;;;;;;11.20;10.03;;;;;;;;;;5065308;28;20204;-54
2022/03/24 00:23:53;;;;;;;14.97;10.23;;;;;;;;;;5066521;28;20643;-55
2022/03/24 00:26:19;;;;;;;12.10;10.13;;;;;;;;;;5064716;28;20195;-55
2022/03/24 00:28:46;;;;;;;11.23;9.93;;;;;;;;;;5054365;28;20640;-53
2022/03/24 00:31:14;;;;;;;10.70;9.60;;;;;;;;;;5065212;28;20180;-54
2022/03/24 00:33:40;;;;;;;11.87;10.63;;;;;;;;;;5065256;28;20227;-54
2022/03/24 00:36:09;;;;;;;12.67;9.70;;;;;;;;;;5066299;28;20180;-56
2022/03/24 00:38:36;;;;;;;13.53;10.83;;;;;;;;;;5051794;28;20216;-53
2022/03/24 00:41:02;;;;;;;11.87;9.20;;;;;;;;;;5067411;28;20632;-53
2022/03/24 00:43:28;;;;;;;11.60;10.30;;;;;;;;;;5051787;28;20192;-54
2022/03/24 00:45:55;;;;;;;11.73;10.53;;;;;;;;;;5066760;28;20565;-55
2022/03/24 00:48:21;;;;;;;11.23;10.13;;;;;;;;;;5061335;28;20176;-51
2022/03/24 00:50:47;;;;;;;11.47;10.37;;;;;;;;;;5067310;28;20686;-53
2022/03/24 00:53:14;;;;;;;10.63;9.60;;;;;;;;;;5043488;28;20219;-54
2022/03/24 00:55:40;;;;;;;13.10;10.53;;;;;;;;;;5066657;28;20831;-53
2022/03/24 00:58:06;;;;;;;12.87;9.87;;;;;;;;;;5052797;28;20201;-51
2022/03/24 01:00:33;;;;;;;12.70;10.03;;;;;;;;;;5065946;28;20188;-52
2022/03/24 01:02:59;;;;;;;11.20;10.10;;;;;;;;;;5059869;28;20173;-52
2022/03/24 01:05:28;;;;;;;14.33;10.93;;;;;;;;;;5066389;28;20238;-55
2022/03/24 01:07:55;;;;;;;14.17;11.40;;;;;;;;;;5069069;28;20181;-55
2022/03/24 01:10:22;;;;;;;11.27;10.07;;;;;;;;;;5062007;28;20208;-54
2022/03/24 01:12:48;;;;;;;11.20;10.00;;;;;;;;;;5057849;28;20189;-52
2022/03/24 01:15:16;;;;;;;11.30;10.10;;;;;;;;;;5086138;28;20259;-52
2022/03/24 01:17:42;;;;;;;14.03;10.73;;;;;;;;;;5073091;28;20702;-52
2022/03/24 01:20:13;;;;;;;10.70;9.60;;;;;;;;;;5088914;28;20304;-52
2022/03/24 01:22:40;;;;;;;11.80;10.60;;;;;;;;;;5071642;28;20172;-52
2022/03/24 01:25:07;;;;;;;11.27;9.37;;;;;;;;;;5067412;28;20186;-54
2022/03/24 01:27:34;;;;;;;13.53;11.00;;;;;;;;;;5087720;28;20270;-54
2022/03/24 01:30:01;;;;;;;11.60;10.40;;;;;;;;;;5070883;28;20183;-54
2022/03/24 01:32:28;;;;;;;12.80;11.33;;;;;;;;;;5070134;28;20186;-53
2022/03/24 01:34:55;;;;;;;12.23;10.93;;;;;;;;;;5092525;28;20353;-53
2022/03/24 01:37:23;;;;;;;13.37;11.40;;;;;;;;;;5068373;28;20172;-54
2022/03/24 01:39:50;;;;;;;11.97;10.30;;;;;;;;;;5074040;28;20187;-53
2022/03/24 01:42:17;;;;;;;13.23;11.40;;;;;;;;;;5071150;28;20171;-52
2022/03/24 01:44:46;;;;;;;12.53;11.33;;;;;;;;;;5089725;28;20214;-52
2022/03/24 01:47:13;;;;;;;14.93;11.77;;;;;;;;;;5085342;28;20232;-52
2022/03/24 01:49:41;;;;;;;13.27;11.07;;;;;;;;;;5072479;28;20714;-53
2022/03/24 01:52:11;;;;;;;14.63;12.47;;;;;;;;;;5088764;28;20215;-53
2022/03/24 01:54:38;;;;;;;13.37;11.43;;;;;;;;;;5088263;28;20678;-52
2022/03/24 01:57:06;;;;;;;13.47;11.80;;;;;;;;;;5089428;28;20207;-52
2022/03/24 01:59:33;;;;;;;14.17;11.57;;;;;;;;;;5071707;28;20286;-52
2022/03/24 02:02:00;;;;;;;13.13;11.83;;;;;;;;;;5068032;28;20583;-53
2022/03/24 02:04:26;;;;;;;14.83;12.30;;;;;;;;;;5076884;28;20546;-55
2022/03/24 02:06:52;;;;;;;14.53;12.57;;;;;;;;;;5087662;28;20180;-53
2022/03/24 02:09:19;;;;;;;14.23;12.77;;;;;;;;;;5069910;28;20249;-53
2022/03/24 02:11:45;;;;;;;13.13;11.83;;;;;;;;;;5054524;28;20209;-53
2022/03/24 02:14:14;;;;;;;14.27;12.50;;;;;;;;;;5080086;28;20233;-53
2022/03/24 02:16:41;;;;;;;13.07;11.77;;;;;;;;;;5074100;28;20176;-52
2022/03/24 02:19:23;;;;;;;14.23;12.83;;;;;;;;;;5089272;28;20179;-52
2022/03/24 02:21:50;;;;;;;13.67;11.20;;;;;;;;;;5086963;28;20186;-52
2022/03/24 02:24:18;;;;;;;14.13;11.83;;;;;;;;;;5087593;28;20248;-55
2022/03/24 02:26:45;;;;;;;13.53;12.13;;;;;;;;;;5069098;28;20635;-54
2022/03/24 02:29:14;;;;;;;15.00;12.57;;;;;;;;;;5069584;28;20529;-55
2022/03/24 02:31:42;;;;;;;14.13;12.63;;;;;;;;;;5081174;28;20678;-52
2022/03/24 02:36:54;;;;;;;16.37;13.20;;;;;;;;;;5087713;28;20226;-53
2022/03/24 02:39:21;;;;;;;14.67;12.67;;;;;;;;;;5071226;28;20493;-52
2022/03/24 02:41:52;;;;;;;14.30;11.83;;;;;;;;;;5069421;28;20175;-53
2022/03/24 02:44:26;;;;;;;15.73;13.27;;;;;;;;;;5050577;28;20566;-53
2022/03/24 02:46:53;;;;;;;14.67;13.07;;;;;;;;;;5082484;28;20188;-53
2022/03/24 02:49:24;;;;;;;15.87;13.23;;;;;;;;;;5067699;28;20176;-53
2022/03/24 02:51:51;;;;;;;15.80;13.67;;;;;;;;;;5061860;28;20188;-54
2022/03/24 02:54:18;;;;;;;17.30;13.50;;;;;;;;;;5068986;28;20218;-53
2022/03/24 02:56:44;;;;;;;16.53;13.40;;;;;;;;;;5069689;28;20203;-53
2022/03/24 02:59:12;;;;;;;14.80;13.20;;;;;;;;;;5070094;28;20183;-53
2022/03/24 03:01:41;;;;;;;14.20;12.70;;;;;;;;;;5069289;28;20635;-52
2022/03/24 03:04:08;;;;;;;15.37;13.37;;;;;;;;;;5089640;28;20188;-52
2022/03/24 03:06:35;;;;;;;15.17;13.57;;;;;;;;;;5081300;28;20600;-53
2022/03/24 03:09:02;;;;;;;14.83;13.00;;;;;;;;;;5085221;28;20271;-51
2022/03/24 03:11:32;;;;;;;16.33;14.00;;;;;;;;;;5069334;28;20707;-53
2022/03/24 03:14:00;;;;;;;16.40;13.83;;;;;;;;;;5086112;28;20254;-52
2022/03/24 03:16:26;;;;;;;14.33;12.67;;;;;;;;;;5083465;28;20188;-54
2022/03/24 03:18:53;;;;;;;14.70;13.20;;;;;;;;;;5068531;28;20184;-55
2022/03/24 03:21:19;;;;;;;15.17;12.97;;;;;;;;;;5054484;28;20230;-54
2022/03/24 03:23:45;;;;;;;16.37;13.17;;;;;;;;;;5069139;28;20601;-53
2022/03/24 03:26:15;;;;;;;14.90;13.40;;;;;;;;;;5067039;28;20192;-53
2022/03/24 03:28:42;;;;;;;14.47;12.97;;;;;;;;;;5061049;28;20176;-52
2022/03/24 03:31:09;;;;;;;17.70;13.93;;;;;;;;;;5049659;28;20667;-53
2022/03/24 03:33:36;;;;;;;15.63;13.73;;;;;;;;;;5068853;28;20226;-53
2022/03/24 03:36:03;;;;;;;16.13;14.47;;;;;;;;;;5068898;28;20172;-51
2022/03/24 03:38:30;;;;;;;16.17;13.73;;;;;;;;;;5076961;28;20233;-55
2022/03/24 03:40:56;;;;;;;17.63;14.40;;;;;;;;;;5077709;28;20180;-56
2022/03/24 03:43:23;;;;;;;15.67;13.07;;;;;;;;;;5063392;28;20593;-54
2022/03/24 03:45:52;;;;;;;15.23;13.67;;;;;;;;;;5068251;28;20199;-53
2022/03/24 03:48:18;;;;;;;16.33;13.57;;;;;;;;;;5068532;28;20192;-53
2022/03/24 03:50:45;;;;;;;16.17;14.40;;;;;;;;;;5088486;28;20526;-52
2022/03/24 03:53:11;;;;;;;15.43;13.20;;;;;;;;;;5067224;28;20646;-53
2022/03/24 03:55:39;;;;;;;14.93;13.37;;;;;;;;;;5067635;28;20176;-55
2022/03/24 03:58:06;;;;;;;18.80;14.73;;;;;;;;;;5067341;28;20191;-54
2022/03/24 04:03:17;;;;;;;15.93;14.07;;;;;;;;;;5083080;28;20255;-53
2022/03/24 04:05:43;;;;;;;17.53;14.50;;;;;;;;;;5062800;28;20176;-53
2022/03/24 04:08:10;;;;;;;16.60;14.63;;;;;;;;;;5066495;28;20180;-52
2022/03/24 04:10:38;;;;;;;17.33;14.17;;;;;;;;;;5052897;28;20202;-53
2022/03/24 04:13:04;;;;;;;16.50;13.83;;;;;;;;;;5086168;28;20182;-54
2022/03/24 04:15:31;;;;;;;15.63;14.03;;;;;;;;;;5100515;28;20215;-53
2022/03/24 04:17:58;;;;;;;15.87;14.20;;;;;;;;;;5067732;28;20176;-54
2022/03/24 04:20:24;;;;;;;14.70;13.17;;;;;;;;;;5087476;28;20187;-53
2022/03/24 04:22:54;;;;;;;15.37;13.73;;;;;;;;;;5093279;28;20172;-54
2022/03/24 04:25:21;;;;;;;15.73;13.67;;;;;;;;;;5067752;28;20618;-53
2022/03/24 04:27:48;;;;;;;17.93;14.50;;;;;;;;;;5068744;28;20184;-53
2022/03/24 04:30:15;;;;;;;17.07;14.17;;;;;;;;;;5068046;28;20282;-53
2022/03/24 04:32:42;;;;;;;16.30;14.50;;;;;;;;;;5062980;28;20227;-52
2022/03/24 04:35:09;;;;;;;17.93;14.53;;;;;;;;;;5067095;28;20268;-55
2022/03/24 04:37:35;;;;;;;17.57;14.80;;;;;;;;;;5091075;28;20176;-53
2022/03/24 04:40:02;;;;;;;17.17;14.43;;;;;;;;;;5088177;28;20682;-55
2022/03/24 04:42:29;;;;;;;17.07;14.27;;;;;;;;;;5073248;28;20280;-53
2022/03/24 04:44:56;;;;;;;17.27;13.50;;;;;;;;;;5073495;28;20200;-52
2022/03/24 04:47:23;;;;;;;17.43;14.20;;;;;;;;;;5086429;28;20805;-55
2022/03/24 04:49:50;;;;;;;17.10;14.13;;;;;;;;;;5090885;28;20547;-53
2022/03/24 04:52:16;;;;;;;17.17;15.03;;;;;;;;;;5072742;28;20249;-53
2022/03/24 04:54:43;;;;;;;16.70;13.90;;;;;;;;;;5071861;28;20203;-54
2022/03/24 04:57:09;;;;;;;15.90;14.20;;;;;;;;;;5072395;28;20210;-55
2022/03/24 04:59:35;;;;;;;15.83;14.17;;;;;;;;;;5055751;28;20265;-53
2022/03/24 05:02:02;;;;;;;15.23;13.30;;;;;;;;;;5083966;28;20190;-52
2022/03/24 05:04:28;;;;;;;16.17;13.93;;;;;;;;;;5072741;28;20230;-53
2022/03/24 05:06:54;;;;;;;15.43;13.63;;;;;;;;;;5090502;28;20184;-53
2022/03/24 05:09:20;;;;;;;18.23;15.43;;;;;;;;;;5090804;28;20191;-53
2022/03/24 05:11:46;;;;;;;15.80;13.03;;;;;;;;;;5072083;28;20222;-53
2022/03/24 05:14:13;;;;;;;16.23;14.53;;;;;;;;;;5084968;28;20226;-53
2022/03/24 05:16:39;;;;;;;15.37;13.20;;;;;;;;;;5078180;28;20187;-53
2022/03/24 05:19:06;;;;;;;15.27;12.47;;;;;;;;;;5071337;28;20183;-53
2022/03/24 05:21:32;;;;;;;15.93;14.30;;;;;;;;;;5088640;28;20179;-53
2022/03/24 05:23:59;;;;;;;18.30;13.30;;;;;;;;;;5070217;28;20184;-54
2022/03/24 05:26:26;;;;;;;15.97;13.37;;;;;;;;;;5068967;28;20183;-52
2022/03/24 05:28:53;;;;;;;17.23;14.23;;;;;;;;;;5082923;28;20190;-54
2022/03/24 05:31:21;;;;;;;15.87;13.30;;;;;;;;;;5061972;28;20192;-55
2022/03/24 05:33:47;;;;;;;15.77;12.60;;;;;;;;;;5073342;28;20673;-53
2022/03/24 05:36:15;;;;;;;14.17;12.57;;;;;;;;;;5073056;28;20190;-55
2022/03/24 05:38:41;;;;;;;15.77;13.10;;;;;;;;;;5090572;28;20564;-54
2022/03/24 05:41:10;;;;;;;17.27;14.27;;;;;;;;;;5083017;28;20665;-56
2022/03/24 05:43:36;;;;;;;17.87;14.17;;;;;;;;;;5087855;28;20191;-52
2022/03/24 05:46:03;;;;;;;16.30;14.30;;;;;;;;;;5089478;28;20983;-53
2022/03/24 05:48:29;;;;;;;15.00;13.20;;;;;;;;;;5086015;28;20223;-54
2022/03/24 05:50:55;;;;;;;17.23;13.83;;;;;;;;;;5087567;28;20188;-53
2022/03/24 05:53:22;;;;;;;17.40;13.17;;;;;;;;;;5086292;28;20192;-52
2022/03/24 05:55:48;;;;;;;16.87;14.23;;;;;;;;;;5069726;28;20465;-52
2022/03/24 05:58:14;;;;;;;15.90;13.30;;;;;;;;;;5068815;28;20215;-53
2022/03/24 06:00:41;;;;;;;17.33;14.50;;;;;;;;;;5071663;28;20188;-54
2022/03/24 06:03:07;;;;;;;14.27;12.67;;;;;;;;;;5070467;28;20184;-53
2022/03/24 06:05:34;;;;;;;17.83;14.43;;;;;;;;;;5070724;28;20184;-53
2022/03/24 06:08:00;;;;;;;15.93;12.77;;;;;;;;;;5080681;28;20190;-53
2022/03/24 06:10:27;;;;;;;14.80;12.03;;;;;;;;;;5091827;28;20214;-53
2022/03/24 06:12:53;;;;;;;17.97;13.87;;;;;;;;;;5090155;28;20176;-53
2022/03/24 06:15:19;;;;;;;15.43;13.10;;;;;;;;;;5085733;28;20303;-54
2022/03/24 06:17:46;;;;;;;16.43;12.83;;;;;;;;;;5071072;28;20188;-55
2022/03/24 06:20:12;;;;;;;16.27;13.33;;;;;;;;;;5088611;28;20213;-53
2022/03/24 06:23:04;;;;;;;15.77;13.53;;;;;;;;;;5086874;28;20539;-52
2022/03/24 06:25:30;;;;;;;15.83;13.30;;;;;;;;;;5079458;28;20200;-54
2022/03/24 06:27:57;;;;;;;15.07;12.13;;;;;;;;;;5087632;28;20175;-52
2022/03/24 06:30:24;;;;;;;16.67;12.47;;;;;;;;;;5089028;28;20221;-52
2022/03/24 06:32:52;;;;;;;15.83;13.57;;;;;;;;;;5080038;28;20533;-54
2022/03/24 06:35:18;;;;;;;14.33;11.57;;;;;;;;;;5078860;28;20458;-54
2022/03/24 06:37:44;;;;;;;15.63;13.03;;;;;;;;;;5089033;28;20203;-52
2022/03/24 06:40:12;;;;;;;15.83;13.10;;;;;;;;;;5090356;28;20194;-54
2022/03/24 06:42:38;;;;;;;15.53;12.87;;;;;;;;;;5084083;28;20201;-53
2022/03/24 06:45:06;;;;;;;14.63;12.27;;;;;;;;;;5064270;28;20179;-53
2022/03/24 06:47:32;;;;;;;15.27;12.87;;;;;;;;;;5088901;28;20185;-53
2022/03/24 06:49:58;;;;;;;17.33;13.70;;;;;;;;;;5090493;28;20195;-54
2022/03/24 06:52:24;;;;;;;16.67;12.70;;;;;;;;;;5089250;28;20714;-52
2022/03/24 06:54:50;;;;;;;15.30;13.30;;;;;;;;;;5089777;28;20195;-54
2022/03/24 06:57:16;;;;;;;14.63;13.13;;;;;;;;;;5067712;28;20207;-55
2022/03/24 06:59:43;;;;;;;16.17;12.17;;;;;;;;;;5088457;28;20183;-54
2022/03/24 07:02:09;;;;;;;15.93;12.77;;;;;;;;;;5082693;28;20222;-54
2022/03/24 07:04:36;;;;;;;16.50;13.60;;;;;;;;;;5089074;28;20236;-54
2022/03/24 07:07:02;;;;;;;15.57;13.20;;;;;;;;;;5087007;28;20183;-55
2022/03/24 07:09:31;;;;;;;16.13;12.90;;;;;;;;;;5084218;28;20267;-55
2022/03/24 07:11:58;;;;;;;15.73;14.07;;;;;;;;;;5088577;28;20616;-55
2022/03/24 07:14:27;;;;;;;16.43;13.10;;;;;;;;;;5067539;28;20231;-54
2022/03/24 07:16:53;;;;;;;18.87;13.67;;;;;;;;;;5055886;28;20175;-55
2022/03/24 07:19:19;;;;;;;17.50;13.57;;;;;;;;;;5088440;28;20218;-54
2022/03/24 07:21:46;;;;;;;16.80;14.27;;;;;;;;;;5084884;28;20169;-54
2022/03/24 07:24:12;;;;;;;17.10;14.67;;;;;;;;;;5085708;28;20225;-54
2022/03/24 07:26:38;;;;;;;18.87;14.17;;;;;;;;;;5081590;28;20188;-53
2022/03/24 07:29:04;;;;;;;16.47;13.10;;;;;;;;;;5090164;28;20176;-53
2022/03/24 07:31:31;;;;;;;18.03;14.60;;;;;;;;;;5106936;28;20183;-53
2022/03/24 07:33:57;;;;;;;20.27;14.67;;;;;;;;;;5084788;28;20256;-54
2022/03/24 07:36:24;;;;;;;18.33;14.70;;;;;;;;;;5083764;28;20175;-55
2022/03/24 07:38:54;;;;;;;16.07;13.73;;;;;;;;;;5082334;28;20191;-54
2022/03/24 07:41:21;;;;;;;16.70;14.37;;;;;;;;;;5053439;28;20621;-54
2022/03/24 07:43:48;;;;;;;20.30;16.53;;;;;;;;;;5070582;28;20186;-53
2022/03/24 07:46:14;;;;;;;18.77;16.07;;;;;;;;;;5070537;28;20183;-54
2022/03/24 07:48:43;;;;;;;21.03;16.10;;;;;;;;;;5088561;28;20725;-53
2022/03/24 07:51:09;;;;;;;18.30;15.33;;;;;;;;;;5089030;28;20798;-56
2022/03/24 07:53:38;;;;;;;20.87;15.57;;;;;;;;;;5052302;28;20646;-53
2022/03/24 07:56:05;;;;;;;21.53;17.03;;;;;;;;;;5070670;28;20179;-54
2022/03/24 07:58:31;;;;;;;21.63;16.13;;;;;;;;;;5069215;28;20575;-53
2022/03/24 08:00:59;;;;;;;19.40;16.00;;;;;;;;;;5068732;28;20636;-53
2022/03/24 08:03:26;;;;;;;21.27;16.87;;;;;;;;;;5068332;28;20729;-54
2022/03/24 08:05:53;;;;;;;22.83;17.33;;;;;;;;;;5070829;28;20180;-54
2022/03/24 08:08:20;;;;;;;21.50;17.90;;;;;;;;;;5068854;28;20520;-56
2022/03/24 08:10:47;;;;;;;23.33;17.03;;;;;;;;;;5070937;28;20176;-55
2022/03/24 08:13:15;;;;;;;21.60;17.17;;;;;;;;;;5069811;28;20612;-54
2022/03/24 08:15:41;;;;;;;21.13;16.53;;;;;;;;;;5071133;28;20234;-54
2022/03/24 08:18:08;;;;;;;21.60;17.47;;;;;;;;;;5056979;28;20547;-55
2022/03/24 08:20:38;;;;;;;18.73;16.60;;;;;;;;;;5058755;28;20188;-53
2022/03/24 08:23:08;;;;;;;21.40;17.23;;;;;;;;;;5071105;28;20187;-54
2022/03/24 08:25:35;;;;;;;19.60;15.90;;;;;;;;;;5054551;28;20560;-55
2022/03/24 08:28:02;;;;;;;20.90;17.93;;;;;;;;;;5071967;28;20543;-54
2022/03/24 08:30:28;;;;;;;20.93;17.27;;;;;;;;;;5072669;28;20176;-54
2022/03/24 08:32:55;;;;;;;20.70;16.97;;;;;;;;;;5057982;28;20258;-54
2022/03/24 08:35:21;;;;;;;20.03;16.93;;;;;;;;;;5054614;28;20363;-52
2022/03/24 08:37:48;;;;;;;24.10;18.23;;;;;;;;;;5052980;28;20180;-53
2022/03/24 08:40:15;;;;;;;20.13;16.97;;;;;;;;;;5053889;28;20177;-54
2022/03/24 08:42:41;;;;;;;22.63;16.93;;;;;;;;;;5071507;28;20259;-55
2022/03/24 08:45:09;;;;;;;23.53;19.10;;;;;;;;;;5072856;28;20643;-55
2022/03/24 08:47:35;;;;;;;23.83;18.70;;;;;;;;;;5071698;28;20180;-54
2022/03/24 08:50:02;;;;;;;25.63;18.47;;;;;;;;;;5072193;28;20238;-55
2022/03/24 08:52:28;;;;;;;22.07;17.53;;;;;;;;;;5052237;28;20194;-56
2022/03/24 08:54:54;;;;;;;21.33;18.27;;;;;;;;;;5071752;28;20200;-54
2022/03/24 08:57:27;;;;;;;22.07;18.93;;;;;;;;;;5044408;28;20209;-54
2022/03/24 08:59:57;;;;;;;24.70;17.70;;;;;;;;;;5051944;28;20169;-54
2022/03/24 09:02:23;;;;;;;22.50;17.83;;;;;;;;;;5051433;28;20187;-56
2022/03/24 09:04:50;;;;;;;22.10;18.13;;;;;;;;;;5051563;28;20260;-54
2022/03/24 09:07:18;;;;;;;20.03;17.23;;;;;;;;;;5068350;28;20560;-53
2022/03/24 09:09:44;;;;;;;21.97;18.67;;;;;;;;;;5053595;28;20548;-54
2022/03/24 09:12:11;;;;;;;23.13;18.90;;;;;;;;;;5045579;28;20193;-54
2022/03/24 09:14:38;;;;;;;24.57;17.07;;;;;;;;;;5063695;28;20244;-54
2022/03/24 09:17:05;;;;;;;21.00;17.83;;;;;;;;;;5066153;28;20216;-55
2022/03/24 09:19:33;;;;;;;22.27;17.03;;;;;;;;;;5053131;28;20547;-52
2022/03/24 09:22:00;;;;;;;23.23;18.73;;;;;;;;;;5047145;28;20196;-54
2022/03/24 09:24:26;;;;;;;22.17;18.00;;;;;;;;;;5016965;28;20188;-52
2022/03/24 09:26:53;;;;;;;23.60;18.87;;;;;;;;;;5037746;28;20195;-53
2022/03/24 09:29:21;;;;;;;24.27;19.17;;;;;;;;;;5071096;28;20646;-53
2022/03/24 09:31:47;;;;;;;22.73;19.20;;;;;;;;;;5068225;28;20184;-54
2022/03/24 09:34:14;;;;;;;23.73;18.67;;;;;;;;;;5070715;28;20261;-55
2022/03/24 09:36:40;;;;;;;24.33;19.23;;;;;;;;;;5049011;28;20177;-54
2022/03/24 09:39:07;;;;;;;25.00;20.33;;;;;;;;;;5050568;28;20169;-54
2022/03/24 09:41:34;;;;;;;23.23;20.13;;;;;;;;;;5032985;28;21010;-55
2022/03/24 09:44:00;;;;;;;25.60;19.70;;;;;;;;;;5033152;28;20588;-53
2022/03/24 09:46:30;;;;;;;27.13;21.33;;;;;;;;;;5018384;28;20268;-53
2022/03/24 09:48:57;;;;;;;23.50;19.80;;;;;;;;;;5070862;28;20168;-53
2022/03/24 09:51:23;;;;;;;24.33;20.10;;;;;;;;;;5051391;28;20184;-55
2022/03/24 09:53:50;;;;;;;27.03;19.63;;;;;;;;;;5052530;28;20251;-54
2022/03/24 09:56:17;;;;;;;22.37;18.97;;;;;;;;;;5052455;28;20650;-54
2022/03/24 09:58:44;;;;;;;24.57;20.50;;;;;;;;;;5044636;28;20223;-54
2022/03/24 10:01:10;;;;;;;24.67;19.50;;;;;;;;;;5032935;28;20324;-54
2022/03/24 10:03:37;;;;;;;25.23;19.93;;;;;;;;;;5051662;28;20651;-54
2022/03/24 10:06:06;;;;;;;24.23;20.00;;;;;;;;;;5069218;28;20472;-53
2022/03/24 10:08:33;;;;;;;22.63;19.03;;;;;;;;;;5051739;28;20184;-52
2022/03/24 10:11:09;;;;;;;27.87;20.97;;;;;;;;;;5070675;28;20184;-53
2022/03/24 10:13:41;;;;;;;26.37;21.07;;;;;;;;;;5035307;28;20575;-54
2022/03/24 10:16:08;;;;;;;28.60;22.47;;;;;;;;;;5070778;28;20523;-53
2022/03/24 10:18:34;;;;;;;26.87;21.20;;;;;;;;;;5089183;28;20187;-53
2022/03/24 10:21:03;;;;;;;26.83;22.67;;;;;;;;;;5091208;28;20243;-53
2022/03/24 10:23:36;;;;;;;29.43;22.87;;;;;;;;;;5071122;28;20572;-55
2022/03/24 10:26:05;;;;;;;27.10;21.97;;;;;;;;;;5070273;28;20681;-53
2022/03/24 10:28:31;;;;;;;25.60;21.80;;;;;;;;;;5089099;28;20312;-52
2022/03/24 10:31:03;;;;;;;29.87;24.03;;;;;;;;;;5072045;28;20172;-53
2022/03/24 10:33:31;;;;;;;29.53;24.77;;;;;;;;;;5089157;28;20184;-54
2022/03/24 10:36:15;;;;;;;29.97;23.77;;;;;;;;;;5090456;28;20172;-54
2022/03/24 10:38:45;;;;;;;30.57;23.93;;;;;;;;;;5107336;28;20175;-53
2022/03/24 10:41:24;;;;;;;32.47;24.03;;;;;;;;;;5090267;28;20179;-52
2022/03/24 10:43:52;;;;;;;27.43;22.77;;;;;;;;;;5068543;28;20188;-54
2022/03/24 10:46:19;;;;;;;31.57;24.40;;;;;;;;;;5071496;28;20659;-52
2022/03/24 10:48:47;;;;;;;31.70;25.30;;;;;;;;;;5089911;28;20192;-53
2022/03/24 10:51:34;;;;;;;29.90;23.07;;;;;;;;;;5099785;28;20232;-54
2022/03/24 10:54:19;;;;;;;27.33;23.00;;;;;;;;;;5090113;28;20629;-54
2022/03/24 10:57:07;;;;;;;28.50;22.93;;;;;;;;;;5089493;28;20218;-53
2022/03/24 10:59:38;;;;;;;30.08;26.27;;;;;;;;;;5088845;28;20826;-54
2022/03/24 11:02:04;;;;;;;31.60;23.83;;;;;;;;;;5071058;28;20221;-53
2022/03/24 11:04:31;;;;;;;28.83;23.37;;;;;;;;;;5089698;28;20179;-52
2022/03/24 11:06:57;;;;;;;29.20;23.60;;;;;;;;;;5070123;28;20180;-53
2022/03/24 11:09:28;;;;;;;30.90;24.90;;;;;;;;;;5074797;28;20184;-54
2022/03/24 11:12:20;;;;;;;28.97;24.87;;;;;;;;;;5074877;28;20179;-54
2022/03/24 11:14:49;;;;;;;28.97;23.73;;;;;;;;;;5088984;28;20228;-54
2022/03/24 11:17:15;;;;;;;28.53;23.23;;;;;;;;;;5081066;28;20730;-54
2022/03/24 11:19:42;;;;;;;29.73;24.37;;;;;;;;;;5069414;28;20681;-54
2022/03/24 11:22:14;;;;;;;32.77;23.50;;;;;;;;;;5074081;28;20176;-53
2022/03/24 11:24:41;;;;;;;31.30;24.23;;;;;;;;;;5089393;28;20623;-55
2022/03/24 11:27:07;;;;;;;33.23;24.50;;;;;;;;;;5088899;28;20179;-53
2022/03/24 11:29:34;;;;;;;27.70;22.17;;;;;;;;;;5088930;28;20171;-53
2022/03/24 11:32:00;;;;;;;29.73;23.77;;;;;;;;;;5070515;28;20179;-53
2022/03/24 11:34:26;;;;;;;29.93;23.97;;;;;;;;;;5070739;28;20210;-54
2022/03/24 11:36:52;;;;;;;28.70;23.43;;;;;;;;;;5082900;28;20639;-53
2022/03/24 11:39:20;;;;;;;32.50;24.47;;;;;;;;;;5061424;28;20187;-54
2022/03/24 11:41:49;;;;;;;26.37;22.80;;;;;;;;;;5088621;28;20559;-55
2022/03/24 11:44:18;;;;;;;30.53;23.97;;;;;;;;;;5070723;28;20636;-55
2022/03/24 11:46:53;;;;;;;28.97;22.30;;;;;;;;;;5084622;28;20268;-54
2022/03/24 11:49:21;;;;;;;29.50;23.60;;;;;;;;;;5063893;28;20190;-54
2022/03/24 11:51:59;;;;;;;29.63;23.27;;;;;;;;;;5087515;28;20813;-54
2022/03/24 11:54:30;;;;;;;31.90;24.63;;;;;;;;;;5069875;28;20210;-57
2022/03/24 11:57:15;;;;;;;31.07;23.97;;;;;;;;;;5088742;28;20219;-53
2022/03/24 11:59:41;;;;;;;30.97;23.63;;;;;;;;;;5070630;28;20662;-54
2022/03/24 12:02:15;;;;;;;30.03;24.63;;;;;;;;;;5070192;28;20201;-53
2022/03/24 12:04:45;;;;;;;31.83;23.43;;;;;;;;;;5088947;28;20183;-55
2022/03/24 12:07:16;;;;;;;28.20;22.27;;;;;;;;;;5079894;28;20187;-54
2022/03/24 12:10:02;;;;;;;32.03;23.57;;;;;;;;;;5079979;28;20316;-53
2022/03/24 12:12:29;;;;;;;30.43;23.97;;;;;;;;;;5088127;28;20304;-53
2022/03/24 12:14:55;;;;;;;27.83;22.83;;;;;;;;;;5088292;28;20215;-52
2022/03/24 12:17:26;;;;;;;29.00;23.70;;;;;;;;;;5070382;28;20195;-53
2022/03/24 12:19:56;;;;;;;27.10;22.63;;;;;;;;;;5088875;28;20211;-54
2022/03/24 12:22:35;;;;;;;28.67;22.13;;;;;;;;;;5078072;28;20566;-55
2022/03/24 12:25:02;;;;;;;29.17;22.30;;;;;;;;;;5087053;28;20167;-56
2022/03/24 12:27:32;;;;;;;29.27;23.87;;;;;;;;;;5079315;28;20176;-53
2022/03/24 12:30:15;;;;;;;27.10;22.77;;;;;;;;;;5070356;28;20172;-53
2022/03/24 12:32:42;;;;;;;30.13;23.73;;;;;;;;;;5076580;28;20198;-53
2022/03/24 12:35:09;;;;;;;28.90;23.50;;;;;;;;;;5050340;28;20308;-53
2022/03/24 12:37:35;;;;;;;27.43;22.47;;;;;;;;;;5060148;28;20263;-52
2022/03/24 12:40:11;;;;;;;29.20;23.10;;;;;;;;;;5071894;28;20546;-55
2022/03/24 12:42:45;;;;;;;25.47;22.10;;;;;;;;;;5096513;28;20528;-56
2022/03/24 12:45:11;;;;;;;26.70;21.73;;;;;;;;;;5088273;28;20172;-53
2022/03/24 12:47:38;;;;;;;26.33;21.50;;;;;;;;;;5077558;28;20243;-54
2022/03/24 12:50:16;;;;;;;27.63;22.80;;;;;;;;;;5068215;28;20675;-54
2022/03/24 12:52:54;;;;;;;27.77;22.73;;;;;;;;;;5060900;28;20284;-54
2022/03/24 12:55:21;;;;;;;30.40;22.93;;;;;;;;;;5088237;28;20200;-54
2022/03/24 12:57:59;;;;;;;27.93;22.50;;;;;;;;;;5087575;28;20252;-54
2022/03/24 13:00:26;;;;;;;28.33;22.47;;;;;;;;;;5101021;28;20200;-53
2022/03/24 13:02:53;;;;;;;28.20;23.90;;;;;;;;;;5078923;28;20559;-54
2022/03/24 13:05:27;;;;;;;26.60;22.33;;;;;;;;;;5085794;28;20682;-54
2022/03/24 13:07:54;;;;;;;26.63;22.67;;;;;;;;;;5078618;28;20553;-54
2022/03/24 13:10:21;;;;;;;28.03;22.00;;;;;;;;;;5097495;28;20607;-53
2022/03/24 13:12:49;;;;;;;26.43;22.63;;;;;;;;;;5092844;28;20272;-54
2022/03/24 13:15:23;;;;;;;27.97;23.40;;;;;;;;;;5091743;28;20675;-53
2022/03/24 13:17:50;;;;;;;27.97;23.57;;;;;;;;;;5091328;28;20225;-54
2022/03/24 13:20:17;;;;;;;32.33;26.20;;;;;;;;;;5091751;28;20167;-54
2022/03/24 13:22:45;;;;;;;29.10;24.30;;;;;;;;;;5070179;28;20172;-53
2022/03/24 13:25:11;;;;;;;28.90;25.07;;;;;;;;;;5072885;28;20186;-53
2022/03/24 13:27:41;;;;;;;33.00;25.03;;;;;;;;;;5088947;28;20198;-55
2022/03/24 13:30:08;;;;;;;33.20;26.03;;;;;;;;;;5086966;28;20184;-55
2022/03/24 13:32:34;;;;;;;32.30;24.77;;;;;;;;;;5086595;28;20182;-55
2022/03/24 13:35:00;;;;;;;31.07;26.40;;;;;;;;;;5095246;28;20682;-56
2022/03/24 13:37:31;;;;;;;32.67;27.20;;;;;;;;;;5088451;28;20207;-55
2022/03/24 13:39:59;;;;;;;32.33;25.83;;;;;;;;;;5070739;28;20176;-57
2022/03/24 13:42:25;;;;;;;33.67;25.10;;;;;;;;;;5084919;28;20176;-53
2022/03/24 13:44:53;;;;;;;33.93;26.53;;;;;;;;;;5073923;28;20535;-52
2022/03/24 13:47:22;;;;;;;33.10;25.90;;;;;;;;;;5074380;28;20242;-53
2022/03/24 13:49:52;;;;;;;31.33;26.07;;;;;;;;;;5088976;28;20608;-54
2022/03/24 13:52:35;;;;;;;31.07;25.40;;;;;;;;;;5068012;28;20595;-54
2022/03/24 13:55:11;;;;;;;35.60;27.23;;;;;;;;;;5087415;28;20742;-54
2022/03/24 13:58:04;;;;;;;34.00;27.57;;;;;;;;;;5066950;28;20229;-55
2022/03/24 14:00:36;;;;;;;33.43;26.67;;;;;;;;;;5085426;28;20207;-55
2022/03/24 14:03:21;;;;;;;32.93;26.80;;;;;;;;;;5087926;28;20172;-56
2022/03/24 14:05:47;;;;;;;32.13;26.47;;;;;;;;;;5075868;28;20187;-56
2022/03/24 14:08:17;;;;;;;32.90;27.77;;;;;;;;;;5080409;28;20180;-56
2022/03/24 14:10:44;;;;;;;29.50;26.10;;;;;;;;;;5069681;28;20184;-56
2022/03/24 14:13:14;;;;;;;35.63;26.97;;;;;;;;;;5068633;28;20183;-54
2022/03/24 14:15:41;;;;;;;30.90;26.03;;;;;;;;;;5088110;28;20200;-55
2022/03/24 14:18:14;;;;;;;35.43;27.43;;;;;;;;;;5070577;28;20190;-55
2022/03/24 14:20:45;;;;;;;35.87;25.47;;;;;;;;;;5090155;28;20176;-54
2022/03/24 14:23:24;;;;;;;33.70;26.57;;;;;;;;;;5086824;28;20519;-54
2022/03/24 14:25:50;;;;;;;32.00;26.53;;;;;;;;;;5093190;28;20175;-55
2022/03/24 14:28:35;;;;;;;32.57;27.03;;;;;;;;;;5088857;28;20262;-56
2022/03/24 14:31:17;;;;;;;37.37;25.97;;;;;;;;;;5088426;28;20180;-54